createdAt,value
2022-11-16T00:00:34.332Z,56.30
2022-11-16T00:03:00.797Z,56.30
2022-11-16T00:05:28.599Z,56.10
2022-11-16T00:07:55.166Z,56.20
2022-11-16T00:10:21.617Z,56.10
2022-11-16T00:12:48.104Z,56.30
2022-11-16T00:15:14.624Z,56.30
2022-11-16T00:17:41.091Z,56.30
2022-11-16T00:20:07.964Z,56.30
2022-11-16T00:22:34.431Z,56.20
2022-11-16T00:25:00.903Z,56.20
2022-11-16T00:27:27.363Z,56.30
2022-11-16T00:29:53.843Z,56.40
2022-11-16T00:32:20.298Z,56.20
2022-11-16T00:34:46.776Z,56.40
2022-11-16T00:37:13.251Z,56.40
2022-11-16T00:39:39.724Z,56.10
2022-11-16T00:42:06.215Z,56.40
2022-11-16T00:44:32.698Z,56.30
2022-11-16T00:46:59.145Z,56.50
2022-11-16T00:49:25.603Z,56.40
2022-11-16T00:51:52.086Z,56.40
2022-11-16T00:54:18.610Z,56.40
2022-11-16T00:56:45.126Z,56.50
2022-11-16T00:59:11.594Z,56.50
2022-11-16T01:01:38.202Z,56.60
2022-11-16T01:04:04.712Z,56.60
2022-11-16T01:06:31.185Z,56.50
2022-11-16T01:08:57.645Z,56.60
2022-11-16T01:11:24.098Z,56.40
2022-11-16T01:13:50.546Z,56.60
2022-11-16T01:16:17.026Z,56.60
2022-11-16T01:18:43.495Z,56.40
2022-11-16T01:21:09.965Z,56.70
2022-11-16T01:23:36.446Z,56.60
2022-11-16T01:26:02.924Z,56.70
2022-11-16T01:28:29.389Z,56.70
2022-11-16T01:30:55.884Z,56.80
2022-11-16T01:33:22.360Z,56.70
2022-11-16T01:35:48.830Z,56.70
2022-11-16T01:38:15.280Z,56.70
2022-11-16T01:40:41.759Z,56.90
2022-11-16T01:43:08.221Z,56.80
2022-11-16T01:45:34.697Z,56.80
2022-11-16T01:48:01.213Z,56.90
2022-11-16T01:50:27.704Z,56.80
2022-11-16T01:52:54.178Z,56.70
2022-11-16T01:55:20.650Z,56.80
2022-11-16T01:57:47.129Z,56.90
2022-11-16T02:00:13.598Z,56.90
2022-11-16T02:02:40.116Z,56.90
2022-11-16T02:05:06.606Z,56.70
2022-11-16T02:07:33.157Z,56.80
2022-11-16T02:09:59.684Z,56.90
2022-11-16T02:12:26.162Z,57.10
2022-11-16T02:14:53.296Z,56.90
2022-11-16T02:17:19.745Z,56.90
2022-11-16T02:19:46.211Z,57.00
2022-11-16T02:22:12.664Z,57.10
2022-11-16T02:24:39.175Z,57.10
2022-11-16T02:27:05.645Z,57.10
2022-11-16T02:29:32.116Z,57.10
2022-11-16T02:32:01.348Z,57.10
2022-11-16T02:34:27.819Z,57.20
2022-11-16T02:36:54.302Z,57.20
2022-11-16T02:39:20.833Z,57.30
2022-11-16T02:41:47.287Z,57.30
2022-11-16T02:44:13.756Z,57.20
2022-11-16T02:46:40.203Z,57.40
2022-11-16T02:49:06.688Z,58.00
2022-11-16T02:51:33.146Z,57.30
2022-11-16T02:53:59.790Z,57.30
2022-11-16T02:56:26.264Z,57.30
2022-11-16T02:58:52.726Z,57.30
2022-11-16T03:01:19.505Z,57.40
2022-11-16T03:06:26.419Z,57.40
2022-11-16T03:08:52.910Z,57.40
2022-11-16T03:11:19.379Z,57.50
2022-11-16T03:13:45.833Z,57.40
2022-11-16T03:16:12.308Z,57.40
2022-11-16T03:18:38.793Z,57.40
2022-11-16T03:21:06.324Z,57.50
2022-11-16T03:23:32.799Z,57.50
2022-11-16T03:25:59.256Z,57.50
2022-11-16T03:28:25.723Z,57.70
2022-11-16T03:30:52.217Z,57.50
2022-11-16T03:33:18.685Z,57.60
2022-11-16T03:35:45.135Z,57.50
2022-11-16T03:38:11.609Z,57.60
2022-11-16T03:40:38.077Z,57.60
2022-11-16T03:43:04.578Z,57.70
2022-11-16T03:45:31.096Z,57.70
2022-11-16T03:47:57.578Z,57.60
2022-11-16T03:50:24.074Z,57.60
2022-11-16T03:52:50.530Z,57.60
2022-11-16T03:55:17.022Z,57.50
2022-11-16T03:57:43.493Z,57.60
2022-11-16T04:00:09.982Z,57.70
2022-11-16T04:02:36.439Z,57.80
2022-11-16T04:05:02.931Z,57.80
2022-11-16T04:07:29.449Z,57.90
2022-11-16T04:09:59.004Z,57.80
2022-11-16T04:12:25.469Z,57.70
2022-11-16T04:14:51.934Z,57.60
2022-11-16T04:17:18.389Z,57.80
2022-11-16T04:19:44.863Z,57.70
2022-11-16T04:22:11.322Z,57.80
2022-11-16T04:24:37.794Z,58.00
2022-11-16T04:27:04.740Z,57.80
2022-11-16T04:29:31.201Z,58.00
2022-11-16T04:31:57.675Z,58.00
2022-11-16T04:34:24.132Z,58.10
2022-11-16T04:36:50.606Z,57.80
2022-11-16T04:39:17.126Z,58.10
2022-11-16T04:41:43.584Z,58.00
2022-11-16T04:44:10.081Z,58.00
2022-11-16T04:46:36.548Z,58.00
2022-11-16T04:49:02.992Z,58.00
2022-11-16T04:51:29.454Z,58.00
2022-11-16T04:53:55.937Z,58.20
2022-11-16T04:56:22.408Z,58.00
2022-11-16T04:58:48.883Z,58.00
2022-11-16T05:01:15.411Z,58.10
2022-11-16T05:03:41.927Z,58.20
2022-11-16T05:06:08.400Z,58.10
2022-11-16T05:08:35.164Z,58.20
2022-11-16T05:11:01.796Z,58.30
2022-11-16T05:13:28.287Z,58.20
2022-11-16T05:15:54.779Z,58.30
2022-11-16T05:18:21.282Z,58.20
2022-11-16T05:20:47.784Z,58.20
2022-11-16T05:23:14.278Z,58.30
2022-11-16T05:25:40.767Z,58.30
2022-11-16T05:28:07.246Z,58.50
2022-11-16T05:30:33.735Z,58.40
2022-11-16T05:33:00.573Z,58.10
2022-11-16T05:35:27.092Z,58.30
2022-11-16T05:37:53.616Z,58.40
2022-11-16T05:40:20.225Z,58.90
2022-11-16T05:42:46.685Z,58.40
2022-11-16T05:45:17.150Z,58.50
2022-11-16T05:47:46.321Z,58.30
2022-11-16T05:50:12.802Z,58.40
2022-11-16T05:52:39.289Z,58.40
2022-11-16T05:55:05.743Z,58.50
2022-11-16T05:57:32.221Z,58.60
2022-11-16T05:59:58.694Z,58.60
2022-11-16T06:02:25.270Z,58.60
2022-11-16T06:04:54.934Z,58.70
2022-11-16T06:07:21.470Z,58.70
2022-11-16T06:09:47.993Z,58.60
2022-11-16T06:12:14.456Z,58.60
2022-11-16T06:14:40.969Z,58.50
2022-11-16T06:17:07.453Z,58.60
2022-11-16T06:19:33.928Z,58.60
2022-11-16T06:22:03.254Z,58.70
2022-11-16T06:24:29.704Z,58.60
2022-11-16T06:26:56.197Z,58.60
2022-11-16T06:29:22.667Z,58.60
2022-11-16T06:31:49.138Z,58.70
2022-11-16T06:34:15.603Z,58.90
2022-11-16T06:36:42.065Z,59.20
2022-11-16T06:39:08.533Z,59.00
2022-11-16T06:41:38.812Z,58.90
2022-11-16T06:44:07.856Z,58.80
2022-11-16T06:46:34.343Z,59.00
2022-11-16T06:49:00.811Z,58.80
2022-11-16T06:51:27.311Z,59.00
2022-11-16T06:53:53.779Z,59.20
2022-11-16T06:56:20.324Z,59.20
2022-11-16T06:58:46.779Z,59.00
2022-11-16T07:01:13.301Z,59.00
2022-11-16T07:03:39.866Z,59.00
2022-11-16T07:06:06.348Z,59.10
2022-11-16T07:08:33.189Z,59.10
2022-11-16T07:11:04.041Z,59.70
2022-11-16T07:13:30.858Z,59.30
2022-11-16T07:15:57.369Z,59.70
2022-11-16T07:18:23.848Z,59.90
2022-11-16T07:20:50.334Z,60.20
2022-11-16T07:23:16.879Z,60.40
2022-11-16T07:25:43.369Z,60.50
2022-11-16T07:28:09.816Z,60.50
2022-11-16T07:30:36.300Z,60.00
2022-11-16T07:33:02.913Z,60.70
2022-11-16T07:35:29.416Z,60.80
2022-11-16T07:37:55.901Z,60.80
2022-11-16T07:40:22.375Z,61.20
2022-11-16T07:42:48.856Z,61.10
2022-11-16T07:45:15.311Z,60.70
2022-11-16T07:47:41.771Z,60.80
2022-11-16T07:50:08.229Z,60.70
2022-11-16T07:52:34.689Z,60.30
2022-11-16T07:55:01.200Z,60.30
2022-11-16T07:57:27.857Z,60.40
2022-11-16T07:59:54.338Z,60.10
2022-11-16T08:02:20.792Z,60.00
2022-11-16T08:04:47.292Z,60.40
2022-11-16T08:07:13.778Z,61.20
2022-11-16T08:09:40.308Z,61.30
2022-11-16T08:12:06.823Z,60.70
2022-11-16T08:14:33.283Z,60.60
2022-11-16T08:16:59.747Z,60.80
2022-11-16T08:19:26.256Z,61.30
2022-11-16T08:21:52.711Z,61.50
2022-11-16T08:24:19.186Z,61.10
2022-11-16T08:26:45.645Z,61.30
2022-11-16T08:29:12.132Z,61.50
2022-11-16T08:31:38.607Z,61.40
2022-11-16T08:34:05.063Z,61.90
2022-11-16T08:36:31.526Z,61.50
2022-11-16T08:38:58.105Z,61.30
2022-11-16T08:41:24.619Z,61.00
2022-11-16T08:43:51.083Z,61.10
2022-11-16T08:46:17.569Z,60.90
2022-11-16T08:48:47.054Z,60.70
2022-11-16T08:51:18.639Z,60.70
2022-11-16T08:53:45.918Z,60.40
2022-11-16T08:56:12.455Z,60.80
2022-11-16T08:58:38.911Z,61.00
2022-11-16T09:01:05.388Z,60.80
2022-11-16T09:03:32.032Z,61.10
2022-11-16T09:05:58.500Z,61.00
2022-11-16T09:08:25.007Z,61.00
2022-11-16T09:10:51.495Z,61.20
2022-11-16T09:13:17.990Z,61.10
2022-11-16T09:15:44.476Z,60.90
2022-11-16T09:18:10.929Z,60.50
2022-11-16T09:20:37.383Z,61.10
2022-11-16T09:23:03.847Z,60.90
2022-11-16T09:25:30.314Z,60.50
2022-11-16T09:27:56.804Z,60.50
2022-11-16T09:30:23.283Z,60.90
2022-11-16T09:32:49.738Z,61.10
2022-11-16T09:35:16.231Z,61.30
2022-11-16T09:37:44.708Z,60.80
2022-11-16T09:40:11.162Z,61.20
2022-11-16T09:42:37.624Z,61.30
2022-11-16T09:45:04.104Z,61.00
2022-11-16T09:47:30.635Z,61.00
2022-11-16T09:50:02.953Z,60.80
2022-11-16T09:52:30.628Z,60.90
2022-11-16T09:54:57.128Z,61.10
2022-11-16T09:57:23.631Z,61.20
2022-11-16T09:59:50.089Z,61.30
2022-11-16T10:02:16.584Z,61.20
2022-11-16T10:04:43.072Z,61.20
2022-11-16T10:07:09.665Z,61.30
2022-11-16T10:09:36.183Z,61.10
2022-11-16T10:12:02.635Z,60.90
2022-11-16T10:14:29.113Z,60.90
2022-11-16T10:16:55.623Z,60.90
2022-11-16T10:19:22.516Z,61.00
2022-11-16T10:21:49.012Z,61.10
2022-11-16T10:24:15.485Z,61.20
2022-11-16T10:26:41.943Z,61.00
2022-11-16T10:29:08.431Z,60.60
2022-11-16T10:31:34.890Z,60.30
2022-11-16T10:34:01.387Z,60.70
2022-11-16T10:36:27.846Z,60.60
2022-11-16T10:38:54.303Z,60.70
2022-11-16T10:41:20.777Z,60.70
2022-11-16T10:43:47.590Z,60.40
2022-11-16T10:46:14.058Z,60.90
2022-11-16T10:48:40.531Z,60.90
2022-11-16T10:51:07.094Z,60.90
2022-11-16T10:53:33.882Z,60.40
2022-11-16T10:56:01.842Z,60.40
2022-11-16T10:58:28.306Z,60.10
2022-11-16T11:00:55.344Z,60.00
2022-11-16T11:03:21.817Z,60.20
2022-11-16T11:05:48.281Z,60.20
2022-11-16T11:08:14.847Z,60.10
2022-11-16T11:10:41.316Z,60.00
2022-11-16T11:13:07.774Z,59.90
2022-11-16T11:15:34.261Z,59.90
2022-11-16T11:18:00.734Z,59.90
2022-11-16T11:20:27.209Z,59.90
2022-11-16T11:22:53.689Z,59.80
2022-11-16T11:25:20.157Z,59.60
2022-11-16T11:27:46.631Z,59.50
2022-11-16T11:30:13.117Z,59.50
2022-11-16T11:35:19.922Z,59.60
2022-11-16T11:37:46.390Z,59.40
2022-11-16T11:40:12.849Z,59.50
2022-11-16T11:42:39.302Z,59.40
2022-11-16T11:45:05.794Z,59.40
2022-11-16T11:50:18.795Z,59.40
2022-11-16T11:52:45.250Z,59.30
2022-11-16T11:55:11.744Z,59.20
2022-11-16T11:57:38.215Z,59.10
2022-11-16T12:00:04.680Z,59.00
2022-11-16T12:02:31.285Z,58.90
2022-11-16T12:04:57.886Z,58.80
2022-11-16T12:07:24.430Z,58.80
2022-11-16T12:09:50.992Z,58.70
2022-11-16T12:12:17.451Z,58.60
2022-11-16T12:14:43.927Z,58.60
2022-11-16T12:17:10.395Z,58.60
2022-11-16T12:19:36.852Z,58.30
2022-11-16T12:22:03.327Z,58.20
2022-11-16T12:24:29.787Z,58.20
2022-11-16T12:26:56.276Z,58.40
2022-11-16T12:29:22.741Z,58.20
2022-11-16T12:31:49.203Z,58.40
2022-11-16T12:34:15.677Z,58.40
2022-11-16T12:36:42.157Z,58.40
2022-11-16T12:39:08.608Z,58.30
2022-11-16T12:41:35.073Z,58.20
2022-11-16T12:44:01.559Z,58.20
2022-11-16T12:46:28.014Z,58.00
2022-11-16T12:48:54.535Z,58.10
2022-11-16T12:51:21.046Z,57.90
2022-11-16T12:53:47.509Z,57.90
2022-11-16T12:56:13.984Z,57.80
2022-11-16T12:58:40.446Z,57.70
2022-11-16T13:01:06.928Z,57.70
2022-11-16T13:03:33.984Z,57.70
2022-11-16T13:06:00.712Z,57.50
2022-11-16T13:08:27.184Z,57.50
2022-11-16T13:10:53.655Z,57.40
2022-11-16T13:13:36.045Z,57.50
2022-11-16T13:16:06.592Z,57.50
2022-11-16T13:18:33.069Z,57.40
2022-11-16T13:20:59.540Z,57.40
2022-11-16T13:23:26.011Z,57.30
2022-11-16T13:25:52.520Z,57.40
2022-11-16T13:28:18.974Z,57.40
2022-11-16T13:30:45.447Z,57.40
2022-11-16T13:33:11.922Z,57.40
2022-11-16T13:35:38.392Z,57.30
2022-11-16T13:38:04.903Z,57.30
2022-11-16T13:40:31.413Z,57.40
2022-11-16T13:42:57.914Z,57.40
2022-11-16T13:45:24.464Z,57.30
2022-11-16T13:47:50.911Z,57.30
2022-11-16T13:50:17.359Z,57.30
2022-11-16T13:53:23.477Z,57.30
2022-11-16T13:55:30.362Z,57.30
2022-11-16T13:57:56.875Z,57.30
2022-11-16T14:00:23.342Z,57.10
2022-11-16T14:02:49.797Z,57.20
2022-11-16T14:05:16.256Z,57.30
2022-11-16T14:07:42.754Z,57.30
2022-11-16T14:10:09.309Z,57.30
2022-11-16T14:12:35.850Z,57.30
2022-11-16T14:15:03.736Z,57.30
2022-11-16T14:17:30.682Z,57.30
2022-11-16T14:19:57.151Z,57.30
2022-11-16T14:22:23.630Z,57.40
2022-11-16T14:24:50.101Z,57.30
2022-11-16T14:27:16.595Z,57.30
2022-11-16T14:29:43.135Z,57.40
2022-11-16T14:32:09.636Z,57.20
2022-11-16T14:34:36.103Z,57.30
2022-11-16T14:37:02.632Z,57.30
2022-11-16T14:39:29.088Z,57.40
2022-11-16T14:41:55.552Z,57.30
2022-11-16T14:44:22.348Z,57.30
2022-11-16T14:46:48.819Z,57.40
2022-11-16T14:49:15.279Z,57.40
2022-11-16T14:51:41.759Z,57.50
2022-11-16T14:54:08.245Z,57.30
2022-11-16T14:56:34.964Z,57.40
2022-11-16T14:59:01.465Z,57.40
2022-11-16T15:01:27.986Z,57.40
2022-11-16T15:03:54.528Z,57.30
2022-11-16T15:06:21.774Z,57.30
2022-11-16T15:08:48.257Z,57.30
2022-11-16T15:11:14.754Z,57.40
2022-11-16T15:13:41.227Z,57.30
2022-11-16T15:16:07.695Z,57.40
2022-11-16T15:18:34.159Z,57.30
2022-11-16T15:21:00.613Z,57.30
2022-11-16T15:23:30.645Z,57.40
2022-11-16T15:25:57.469Z,57.40
2022-11-16T15:28:24.002Z,57.30
2022-11-16T15:30:50.468Z,57.30
2022-11-16T15:33:16.936Z,57.30
2022-11-16T15:35:43.410Z,57.30
2022-11-16T15:38:09.900Z,57.30
2022-11-16T15:40:36.379Z,57.30
2022-11-16T15:43:02.878Z,57.30
2022-11-16T15:45:29.353Z,57.40
2022-11-16T15:47:55.832Z,57.30
2022-11-16T15:50:22.305Z,57.30
2022-11-16T15:52:48.784Z,57.30
2022-11-16T15:55:19.708Z,57.30
2022-11-16T15:57:46.803Z,57.30
2022-11-16T16:00:13.261Z,57.10
2022-11-16T16:02:39.746Z,57.20
2022-11-16T16:05:06.281Z,57.30
2022-11-16T16:07:32.800Z,57.20
2022-11-16T16:09:59.300Z,57.30
2022-11-16T16:12:28.161Z,57.30
2022-11-16T16:14:54.634Z,57.30
2022-11-16T16:17:21.229Z,57.30
2022-11-16T16:19:47.694Z,57.30
2022-11-16T16:22:14.181Z,57.20
2022-11-16T16:24:40.655Z,57.30
2022-11-16T16:27:07.127Z,57.30
2022-11-16T16:29:33.599Z,57.30
2022-11-16T16:32:00.054Z,57.30
2022-11-16T16:34:26.529Z,57.30
2022-11-16T16:36:53.037Z,57.30
2022-11-16T16:39:19.512Z,57.20
2022-11-16T16:41:46.021Z,57.30
2022-11-16T16:44:17.160Z,57.20
2022-11-16T16:46:43.666Z,57.10
2022-11-16T16:49:10.137Z,57.20
2022-11-16T16:51:36.740Z,57.20
2022-11-16T16:54:03.225Z,57.20
2022-11-16T16:56:29.721Z,57.20
2022-11-16T16:58:56.203Z,57.20
2022-11-16T17:01:22.708Z,57.30
2022-11-16T17:03:49.239Z,57.30
2022-11-16T17:06:15.713Z,57.30
2022-11-16T17:08:42.316Z,57.30
2022-11-16T17:11:08.788Z,57.30
2022-11-16T17:13:35.517Z,57.30
2022-11-16T17:16:02.212Z,57.30
2022-11-16T17:18:28.697Z,57.30
2022-11-16T17:20:55.162Z,57.30
2022-11-16T17:23:21.632Z,57.30
2022-11-16T17:25:48.094Z,57.30
2022-11-16T17:28:14.566Z,57.40
2022-11-16T17:30:41.022Z,57.30
2022-11-16T17:33:07.489Z,57.40
2022-11-16T17:35:33.955Z,57.30
2022-11-16T17:38:00.437Z,57.10
2022-11-16T17:40:26.908Z,57.30
2022-11-16T17:42:53.366Z,57.30
2022-11-16T17:45:19.839Z,57.30
2022-11-16T17:47:46.417Z,57.30
2022-11-16T17:50:13.387Z,57.40
2022-11-16T17:52:39.879Z,57.30
2022-11-16T17:55:06.337Z,57.30
2022-11-16T17:57:32.800Z,57.30
2022-11-16T17:59:59.275Z,57.20
2022-11-16T18:02:25.745Z,57.30
2022-11-16T18:04:52.211Z,57.30
2022-11-16T18:07:18.755Z,57.10
2022-11-16T18:09:45.374Z,57.10
2022-11-16T18:12:11.891Z,57.20
2022-11-16T18:14:38.344Z,57.10
2022-11-16T18:17:04.831Z,57.20
2022-11-16T18:19:31.296Z,57.10
2022-11-16T18:21:57.796Z,57.10
2022-11-16T18:24:24.261Z,57.20
2022-11-16T18:26:50.732Z,57.10
2022-11-16T18:29:17.219Z,57.70
2022-11-16T18:31:43.719Z,57.10
2022-11-16T18:34:10.239Z,57.10
2022-11-16T18:36:36.693Z,57.20
2022-11-16T18:39:06.173Z,57.10
2022-11-16T18:41:32.705Z,57.00
2022-11-16T18:43:59.477Z,57.10
2022-11-16T18:46:26.074Z,57.10
2022-11-16T18:48:52.570Z,57.00
2022-11-16T18:51:19.034Z,57.00
2022-11-16T18:53:45.505Z,57.10
2022-11-16T18:56:12.048Z,57.00
2022-11-16T18:58:53.942Z,57.00
2022-11-16T19:01:20.568Z,57.00
2022-11-16T19:03:47.074Z,56.90
2022-11-16T19:06:13.533Z,56.90
2022-11-16T19:08:39.988Z,57.00
2022-11-16T19:11:06.473Z,56.90
2022-11-16T19:13:33.488Z,56.90
2022-11-16T19:16:00.295Z,56.90
2022-11-16T19:18:26.886Z,56.80
2022-11-16T19:20:53.374Z,56.90
2022-11-16T19:23:19.834Z,56.90
2022-11-16T19:25:46.289Z,56.90
2022-11-16T19:28:12.740Z,56.90
2022-11-16T19:30:39.213Z,56.80
2022-11-16T19:33:05.739Z,56.90
2022-11-16T19:35:32.303Z,56.90
2022-11-16T19:37:58.765Z,56.80
2022-11-16T19:40:25.424Z,56.90
2022-11-16T19:42:51.964Z,56.80
2022-11-16T19:45:18.501Z,56.90
2022-11-16T19:47:45.000Z,56.90
2022-11-16T19:50:11.482Z,56.90
2022-11-16T19:52:37.978Z,56.90
2022-11-16T19:55:04.521Z,56.70
2022-11-16T19:57:30.997Z,56.90
2022-11-16T19:59:57.467Z,56.90
2022-11-16T20:02:24.458Z,56.90
2022-11-16T20:04:50.996Z,56.80
2022-11-16T20:07:17.603Z,56.80
2022-11-16T20:09:45.065Z,56.80
2022-11-16T20:12:13.811Z,56.80
2022-11-16T20:14:40.340Z,56.80
2022-11-16T20:17:06.936Z,56.70
2022-11-16T20:22:16.635Z,56.70
2022-11-16T20:24:43.100Z,56.80
2022-11-16T20:27:09.574Z,56.90
2022-11-16T20:29:36.034Z,56.90
2022-11-16T20:32:02.498Z,56.80
2022-11-16T20:34:28.957Z,56.60
2022-11-16T20:36:55.950Z,56.70
2022-11-16T20:39:22.431Z,56.80
2022-11-16T20:41:48.888Z,56.70
2022-11-16T20:44:16.884Z,56.70
2022-11-16T20:46:43.442Z,56.80
2022-11-16T20:49:09.945Z,56.80
2022-11-16T20:51:36.428Z,56.70
2022-11-16T20:54:02.880Z,56.80
2022-11-16T20:56:29.366Z,56.80
2022-11-16T20:58:55.848Z,56.70
2022-11-16T21:01:22.415Z,56.70
2022-11-16T21:03:48.937Z,56.60
2022-11-16T21:06:15.430Z,56.70
2022-11-16T21:08:41.895Z,56.70
2022-11-16T21:11:08.432Z,56.80
2022-11-16T21:13:35.202Z,56.70
2022-11-16T21:16:01.864Z,56.70
2022-11-16T21:18:30.830Z,56.80
2022-11-16T21:20:57.509Z,56.70
2022-11-16T21:23:23.984Z,56.80
2022-11-16T21:25:50.961Z,57.30
2022-11-16T21:28:20.135Z,56.70
2022-11-16T21:30:49.218Z,56.70
2022-11-16T21:33:15.702Z,56.70
2022-11-16T21:35:42.174Z,56.60
2022-11-16T21:38:08.639Z,56.60
2022-11-16T21:40:35.102Z,56.70
2022-11-16T21:43:01.985Z,56.70
2022-11-16T21:45:28.453Z,56.60
2022-11-16T21:47:54.936Z,56.70
2022-11-16T21:50:36.796Z,56.70
2022-11-16T21:53:03.274Z,56.50
2022-11-16T21:55:29.747Z,56.70
2022-11-16T21:57:56.243Z,56.60
2022-11-16T22:00:22.705Z,56.60
2022-11-16T22:02:49.204Z,56.60
2022-11-16T22:05:15.659Z,56.60
2022-11-16T22:07:42.121Z,56.70
2022-11-16T22:10:08.607Z,56.70
2022-11-16T22:12:35.096Z,56.70
2022-11-16T22:15:01.569Z,56.60
2022-11-16T22:17:28.341Z,56.70
2022-11-16T22:19:54.796Z,56.60
2022-11-16T22:22:21.260Z,56.70
2022-11-16T22:24:47.798Z,56.60
2022-11-16T22:27:14.288Z,56.70
2022-11-16T22:29:40.760Z,56.80
2022-11-16T22:32:07.435Z,56.70
2022-11-16T22:34:33.923Z,56.70
2022-11-16T22:37:00.400Z,56.60
2022-11-16T22:39:27.060Z,56.60
2022-11-16T22:41:53.519Z,56.60
2022-11-16T22:44:20.002Z,56.60
2022-11-16T22:46:46.504Z,56.70
2022-11-16T22:49:12.987Z,56.70
2022-11-16T22:51:39.502Z,56.80
2022-11-16T22:54:05.954Z,56.70
2022-11-16T22:56:32.417Z,56.70
2022-11-16T22:58:58.896Z,56.70
2022-11-16T23:01:25.409Z,56.60
2022-11-16T23:03:59.156Z,56.60
2022-11-16T23:06:25.633Z,56.70
2022-11-16T23:08:52.089Z,56.80
2022-11-16T23:11:18.553Z,56.60
2022-11-16T23:13:45.028Z,56.70
2022-11-16T23:16:11.529Z,56.80
2022-11-16T23:18:38.029Z,56.80
2022-11-16T23:21:04.498Z,56.90
2022-11-16T23:23:30.952Z,56.70
2022-11-16T23:25:57.412Z,56.80
2022-11-16T23:28:23.884Z,56.80
2022-11-16T23:30:50.349Z,56.80
2022-11-16T23:33:16.817Z,56.80
2022-11-16T23:35:43.281Z,56.70
2022-11-16T23:38:09.766Z,56.80
2022-11-16T23:40:36.239Z,56.80
2022-11-16T23:43:02.706Z,56.80
2022-11-16T23:45:29.170Z,56.80
2022-11-16T23:47:55.635Z,56.70
2022-11-16T23:50:22.386Z,56.70
2022-11-16T23:52:48.852Z,56.80
2022-11-16T23:55:15.326Z,56.80
2022-11-16T23:57:41.801Z,56.90
